Time;durP1;ratioP1;P1;durP2;ratioP2;P2;SDS_P1;SDS_P2;PMS_P1;PMS_P2;Temp;Humidity;BMP_temperature;BMP_pressure;BME280_temperature;BME280_humidity;BME280_pressure;Samples;Min_cycle;Max_cycle;Signal;HPM_P1;HPM_P2
2022/03/06 00:00:46;;;;;;;6.40;2.93;;;2.40;99.90;;;;;;4981949;28;20211;-82
2022/03/06 00:03:13;;;;;;;4.30;2.83;;;2.40;99.90;;;;;;4983279;28;20194;-82
2022/03/06 00:05:38;;;;;;;3.80;2.47;;;2.50;99.90;;;;;;4985056;28;20179;-82
2022/03/06 00:08:04;;;;;;;5.40;2.80;;;2.50;99.90;;;;;;4984827;28;20176;-82
2022/03/06 00:10:32;;;;;;;4.43;2.70;;;2.80;99.90;;;;;;4982457;28;20191;-82
2022/03/06 00:12:58;;;;;;;4.27;2.37;;;2.70;99.90;;;;;;4982639;28;20302;-82
2022/03/06 00:15:26;;;;;;;3.53;2.50;;;2.60;98.90;;;;;;4980780;28;20214;-83
2022/03/06 00:17:54;;;;;;;3.23;2.40;;;2.50;98.90;;;;;;4983868;28;20179;-81
2022/03/06 00:20:20;;;;;;;5.07;2.57;;;2.50;99.90;;;;;;4982507;28;20242;-82
2022/03/06 00:22:45;;;;;;;5.27;2.83;;;2.60;99.70;;;;;;4963496;28;20171;-82
2022/03/06 00:25:11;;;;;;;3.60;2.47;;;2.70;98.90;;;;;;4980372;28;20183;-82
2022/03/06 00:27:37;;;;;;;3.27;2.57;;;2.70;99.20;;;;;;4980867;28;20172;-82
2022/03/06 00:30:05;;;;;;;4.03;2.43;;;2.60;98.80;;;;;;4983811;28;20231;-82
2022/03/06 00:32:30;;;;;;;7.10;2.40;;;2.60;99.40;;;;;;4966178;28;20174;-82
2022/03/06 00:34:56;;;;;;;3.77;2.77;;;2.50;99.40;;;;;;4965222;28;20210;-82
2022/03/06 00:37:22;;;;;;;3.60;2.33;;;2.60;99.90;;;;;;4982321;28;20184;-82
2022/03/06 00:39:48;;;;;;;4.33;2.83;;;2.80;99.90;;;;;;4982090;28;20220;-82
2022/03/06 00:42:14;;;;;;;4.53;2.70;;;2.80;99.70;;;;;;4980177;28;20175;-83
2022/03/06 00:44:40;;;;;;;4.53;2.63;;;2.80;99.90;;;;;;4983781;28;20180;-82
2022/03/06 00:47:06;;;;;;;5.53;2.60;;;2.70;99.90;;;;;;4975782;28;20274;-84
2022/03/06 00:49:32;;;;;;;5.77;2.90;;;2.80;99.90;;;;;;4990966;28;20259;-83
2022/03/06 00:51:58;;;;;;;5.37;3.00;;;2.70;99.90;;;;;;4976018;28;20267;-81
2022/03/06 00:54:24;;;;;;;6.47;3.23;;;2.70;99.90;;;;;;4992495;28;20179;-82
2022/03/06 00:56:50;;;;;;;4.77;3.17;;;2.50;99.80;;;;;;4972493;28;20239;-82
2022/03/06 00:59:18;;;;;;;4.00;2.70;;;2.50;99.90;;;;;;4994156;28;20226;-82
2022/03/06 01:01:44;;;;;;;4.10;2.40;;;2.60;99.90;;;;;;4992230;28;20167;-82
2022/03/06 01:04:10;;;;;;;3.50;2.60;;;2.40;99.90;;;;;;4998143;28;20215;-82
2022/03/06 01:06:36;;;;;;;4.87;2.40;;;2.40;99.90;;;;;;4999721;28;20246;-83
2022/03/06 01:09:03;;;;;;;3.87;2.70;;;2.30;99.90;;;;;;4990778;28;20272;-83
2022/03/06 01:11:29;;;;;;;4.63;2.40;;;2.50;99.90;;;;;;4974785;28;20186;-82
2022/03/06 01:13:54;;;;;;;3.37;2.60;;;2.70;99.90;;;;;;5003177;28;20160;-82
2022/03/06 01:16:21;;;;;;;4.40;2.60;;;2.80;99.50;;;;;;4999422;28;20171;-82
2022/03/06 01:18:46;;;;;;;6.97;3.23;;;2.60;99.90;;;;;;4994584;28;20179;-83
2022/03/06 01:21:12;;;;;;;5.57;3.23;;;2.50;99.90;;;;;;4997668;28;20210;-82
2022/03/06 01:23:38;;;;;;;4.53;3.30;;;2.40;99.90;;;;;;4994140;28;20163;-83
2022/03/06 01:26:04;;;;;;;6.47;2.93;;;2.20;99.90;;;;;;4989235;28;20195;-83
2022/03/06 01:28:31;;;;;;;6.40;3.20;;;2.10;99.90;;;;;;4985895;28;20184;-81
2022/03/06 01:30:56;;;;;;;4.83;3.30;;;2.10;99.90;;;;;;4986231;28;20207;-80
2022/03/06 01:33:22;;;;;;;6.73;3.37;;;2.10;99.90;;;;;;4990420;28;20180;-82
2022/03/06 01:35:48;;;;;;;6.67;3.70;;;2.00;99.90;;;;;;4985245;28;20168;-82
2022/03/06 01:38:14;;;;;;;5.07;3.50;;;2.00;99.90;;;;;;4985377;28;20172;-82
2022/03/06 01:40:40;;;;;;;5.57;3.67;;;2.00;99.90;;;;;;4992455;28;20218;-83
2022/03/06 01:43:06;;;;;;;6.90;3.50;;;2.00;99.90;;;;;;4987285;28;20184;-82
2022/03/06 01:45:32;;;;;;;6.00;3.80;;;2.00;99.90;;;;;;4972420;28;20227;-83
2022/03/06 01:47:58;;;;;;;6.00;3.77;;;1.90;99.90;;;;;;4979458;28;20207;-83
2022/03/06 01:50:30;;;;;;;6.70;4.20;;;1.90;99.90;;;;;;4977717;28;20195;-82
2022/03/06 01:52:58;;;;;;;7.80;3.63;;;1.80;99.90;;;;;;4977927;28;20207;-82
2022/03/06 01:55:26;;;;;;;7.03;3.80;;;1.80;99.90;;;;;;4959283;28;20191;-82
2022/03/06 01:57:55;;;;;;;5.63;3.90;;;1.70;99.90;;;;;;4975936;28;20175;-83
2022/03/06 02:00:23;;;;;;;7.10;3.87;;;1.70;99.90;;;;;;4972565;28;20225;-82
2022/03/06 02:02:50;;;;;;;7.23;3.70;;;1.80;99.90;;;;;;4960848;28;20176;-82
2022/03/06 02:05:16;;;;;;;5.20;3.83;;;1.80;99.90;;;;;;4978241;28;20183;-82
2022/03/06 02:07:42;;;;;;;5.87;4.17;;;1.70;99.90;;;;;;4976700;28;20184;-82
2022/03/06 02:10:10;;;;;;;5.63;4.10;;;1.70;99.90;;;;;;4962939;28;20187;-83
2022/03/06 02:12:36;;;;;;;6.00;3.97;;;1.70;99.90;;;;;;4979359;28;20181;-83
2022/03/06 02:15:07;;;;;;;5.33;3.80;;;1.70;99.90;;;;;;4979061;28;20179;-82
2022/03/06 02:17:37;;;;;;;8.30;4.07;;;1.80;99.90;;;;;;4978535;28;20191;-82
2022/03/06 02:20:12;;;;;;;7.53;3.33;;;1.80;99.90;;;;;;4965559;28;20207;-83
2022/03/06 02:22:43;;;;;;;8.33;3.80;;;1.70;99.90;;;;;;4966419;28;20170;-82
2022/03/06 02:25:17;;;;;;;5.83;3.73;;;1.90;99.90;;;;;;4965341;28;20176;-82
2022/03/06 02:27:44;;;;;;;6.30;3.90;;;1.90;99.90;;;;;;4970559;28;20171;-82
2022/03/06 02:30:13;;;;;;;7.20;3.83;;;1.90;99.90;;;;;;4966160;28;20214;-83
2022/03/06 02:32:39;;;;;;;5.17;3.20;;;1.70;99.90;;;;;;4983320;28;20180;-82
2022/03/06 02:35:07;;;;;;;6.50;3.57;;;1.80;99.90;;;;;;4982178;28;20231;-82
2022/03/06 02:37:33;;;;;;;3.27;2.97;;;1.80;99.90;;;;;;4979228;28;20190;-82
2022/03/06 02:40:01;;;;;;;7.60;3.50;;;1.70;99.90;;;;;;4963387;28;20199;-82
2022/03/06 02:42:31;;;;;;;8.47;3.70;;;1.50;99.90;;;;;;4983466;28;20188;-81
2022/03/06 02:44:59;;;;;;;5.07;3.40;;;1.60;99.90;;;;;;4979470;28;20172;-82
2022/03/06 02:47:26;;;;;;;4.17;3.63;;;1.70;99.90;;;;;;4971864;28;20210;-81
2022/03/06 02:49:52;;;;;;;5.63;3.80;;;1.90;99.90;;;;;;4964692;28;20191;-82
2022/03/06 02:52:18;;;;;;;6.67;3.30;;;2.00;99.90;;;;;;4981585;28;20189;-83
2022/03/06 02:54:44;;;;;;;6.50;3.57;;;2.30;99.90;;;;;;4964822;28;20184;-83
2022/03/06 02:57:10;;;;;;;5.27;3.43;;;2.30;99.90;;;;;;4980613;28;20182;-82
2022/03/06 02:59:36;;;;;;;5.80;3.30;;;2.50;99.90;;;;;;4961825;28;20314;-83
2022/03/06 03:02:04;;;;;;;5.00;3.27;;;2.40;99.90;;;;;;4986072;23;20219;-84
2022/03/06 03:04:31;;;;;;;6.57;3.43;;;2.20;99.90;;;;;;4977831;28;20246;-85
2022/03/06 03:06:57;;;;;;;5.80;3.37;;;2.10;99.90;;;;;;4977935;28;20218;-85
2022/03/06 03:09:24;;;;;;;7.13;3.10;;;2.10;99.90;;;;;;4989842;28;20190;-85
2022/03/06 03:11:56;;;;;;;4.67;3.17;;;1.90;99.90;;;;;;4985498;28;20202;-85
2022/03/06 03:14:22;;;;;;;6.17;3.03;;;1.90;99.90;;;;;;4985906;28;20175;-84
2022/03/06 03:16:48;;;;;;;5.73;3.10;;;1.90;99.90;;;;;;4986770;28;20201;-84
2022/03/06 03:19:14;;;;;;;6.07;2.80;;;1.90;99.90;;;;;;4986090;28;20293;-83
2022/03/06 03:21:41;;;;;;;4.43;2.97;;;1.90;99.90;;;;;;4987255;28;20197;-84
2022/03/06 03:24:07;;;;;;;4.97;3.87;;;1.90;99.90;;;;;;4987357;28;20171;-84
2022/03/06 03:26:34;;;;;;;5.33;3.53;;;1.90;99.90;;;;;;4986135;28;20213;-85
2022/03/06 03:29:00;;;;;;;4.63;3.00;;;2.00;99.90;;;;;;4985673;28;20494;-85
2022/03/06 03:31:26;;;;;;;4.47;2.60;;;2.10;99.90;;;;;;4983214;28;20650;-84
2022/03/06 03:33:51;;;;;;;3.73;2.50;;;1.90;99.90;;;;;;4983849;28;20511;-84
2022/03/06 03:36:17;;;;;;;3.10;2.40;;;1.90;99.90;;;;;;4984464;28;20193;-86
2022/03/06 03:38:43;;;;;;;3.50;2.40;;;2.10;99.90;;;;;;4985009;28;20174;-84
2022/03/06 03:41:09;;;;;;;4.13;2.57;;;2.20;99.90;;;;;;4993956;28;20308;-83
2022/03/06 03:43:35;;;;;;;3.47;2.30;;;2.30;99.90;;;;;;4991783;28;20519;-85
2022/03/06 03:46:01;;;;;;;7.53;2.67;;;2.30;99.90;;;;;;5005432;28;20194;-84
2022/03/06 03:48:29;;;;;;;4.43;2.60;;;2.50;99.90;;;;;;4986418;28;20186;-86
2022/03/06 03:50:56;;;;;;;4.27;2.40;;;2.60;99.90;;;;;;4984030;28;20254;-84
2022/03/06 03:53:22;;;;;;;3.10;2.40;;;2.60;99.90;;;;;;4985633;28;20181;-85
2022/03/06 03:55:52;;;;;;;3.90;2.40;;;2.70;99.90;;;;;;4999489;28;20225;-85
2022/03/06 03:58:18;;;;;;;3.47;2.40;;;2.70;99.90;;;;;;4984325;28;20174;-85
2022/03/06 04:00:53;;;;;;;4.60;2.50;;;2.70;99.90;;;;;;4984946;28;20209;-85
2022/03/06 04:03:20;;;;;;;4.20;2.37;;;2.60;99.90;;;;;;4982217;28;20182;-84
2022/03/06 04:05:45;;;;;;;4.30;2.50;;;2.40;99.90;;;;;;4984901;28;20186;-84
2022/03/06 04:08:11;;;;;;;5.70;2.33;;;2.30;99.90;;;;;;4984030;28;20175;-84
2022/03/06 04:10:37;;;;;;;5.40;2.70;;;2.40;99.90;;;;;;4982166;28;20582;-85
2022/03/06 04:13:03;;;;;;;7.33;2.53;;;2.30;99.90;;;;;;4984302;28;20206;-85
2022/03/06 04:15:29;;;;;;;4.10;2.67;;;2.10;99.90;;;;;;4995500;28;20186;-85
2022/03/06 04:17:54;;;;;;;4.10;2.70;;;2.00;99.90;;;;;;4984206;28;20688;-85
2022/03/06 04:20:21;;;;;;;4.70;3.10;;;1.90;99.90;;;;;;4989135;28;20202;-85
2022/03/06 04:22:47;;;;;;;5.43;2.80;;;1.90;99.90;;;;;;4983075;28;20206;-86
2022/03/06 04:25:12;;;;;;;4.30;2.60;;;2.00;99.90;;;;;;4984967;28;20174;-85
2022/03/06 04:27:38;;;;;;;3.67;2.20;;;1.90;99.90;;;;;;4984709;28;20186;-85
2022/03/06 04:30:05;;;;;;;4.87;2.30;;;1.90;99.90;;;;;;4986337;28;20186;-85
2022/03/06 04:32:30;;;;;;;4.50;2.50;;;1.90;99.90;;;;;;4985642;28;20201;-85
2022/03/06 04:34:56;;;;;;;4.17;2.40;;;1.90;99.90;;;;;;4987632;28;20178;-85
2022/03/06 04:37:22;;;;;;;2.90;2.10;;;1.90;99.90;;;;;;4987142;28;20179;-85
2022/03/06 04:39:49;;;;;;;3.27;2.13;;;1.90;99.90;;;;;;4988117;28;20198;-84
2022/03/06 04:42:15;;;;;;;3.40;2.13;;;1.80;99.90;;;;;;4990834;28;20203;-84
2022/03/06 04:44:41;;;;;;;5.20;2.50;;;1.70;99.90;;;;;;4989855;28;20175;-84
2022/03/06 04:47:07;;;;;;;3.43;2.20;;;1.80;99.90;;;;;;4988739;28;20174;-85
2022/03/06 04:49:33;;;;;;;3.17;2.00;;;1.80;99.90;;;;;;4989950;28;20197;-83
2022/03/06 04:51:59;;;;;;;4.30;2.20;;;1.90;99.90;;;;;;4989105;28;20643;-85
2022/03/06 04:54:25;;;;;;;3.13;2.17;;;1.90;99.90;;;;;;4989058;28;20673;-85
2022/03/06 04:56:51;;;;;;;6.10;2.60;;;1.90;99.90;;;;;;4988657;28;20178;-85
2022/03/06 04:59:18;;;;;;;4.47;2.20;;;2.00;99.90;;;;;;4987433;28;20202;-85
2022/03/06 05:01:43;;;;;;;3.30;2.17;;;2.00;99.90;;;;;;4985554;28;20689;-84
2022/03/06 05:04:10;;;;;;;4.33;1.90;;;2.00;99.90;;;;;;4988510;28;20183;-83
2022/03/06 05:06:35;;;;;;;4.50;2.07;;;2.00;99.90;;;;;;5003482;28;20199;-84
2022/03/06 05:09:02;;;;;;;2.47;2.00;;;1.90;99.90;;;;;;4986450;28;20175;-85
2022/03/06 05:11:28;;;;;;;5.67;2.20;;;1.90;99.90;;;;;;4987599;28;20213;-84
2022/03/06 05:13:54;;;;;;;2.13;1.80;;;1.90;99.90;;;;;;4987318;28;20175;-84
2022/03/06 05:16:20;;;;;;;4.10;2.40;;;1.90;99.90;;;;;;4984512;28;20190;-84
2022/03/06 05:18:45;;;;;;;4.13;1.77;;;1.80;99.90;;;;;;4986307;28;20179;-85
2022/03/06 05:21:11;;;;;;;3.43;2.13;;;1.80;99.90;;;;;;4985840;28;20309;-85
2022/03/06 05:23:37;;;;;;;2.93;2.00;;;2.00;99.90;;;;;;4987903;28;20202;-85
2022/03/06 05:26:03;;;;;;;4.33;2.20;;;1.80;99.90;;;;;;4990613;28;20182;-84
2022/03/06 05:28:29;;;;;;;3.73;2.23;;;1.90;99.90;;;;;;5001467;28;20178;-85
2022/03/06 05:30:55;;;;;;;4.27;2.10;;;2.00;99.90;;;;;;4996640;28;20548;-85
2022/03/06 05:33:21;;;;;;;3.17;2.10;;;1.90;99.90;;;;;;4988619;28;20187;-85
2022/03/06 05:35:47;;;;;;;3.93;2.03;;;2.00;99.90;;;;;;4987823;28;20253;-85
2022/03/06 05:38:13;;;;;;;3.30;2.40;;;2.10;99.90;;;;;;4987521;28;20182;-85
2022/03/06 05:40:39;;;;;;;2.30;2.00;;;2.00;99.90;;;;;;4988055;28;20725;-85
2022/03/06 05:43:05;;;;;;;5.73;2.60;;;1.90;99.90;;;;;;4986010;28;20199;-84
2022/03/06 05:45:31;;;;;;;2.23;1.90;;;1.90;99.90;;;;;;4985726;28;20570;-85
2022/03/06 05:47:56;;;;;;;3.73;2.00;;;2.10;99.90;;;;;;4984958;28;20229;-83
2022/03/06 05:50:22;;;;;;;2.87;2.10;;;2.10;99.90;;;;;;4986404;28;20178;-84
2022/03/06 05:52:51;;;;;;;3.87;2.20;;;1.90;99.90;;;;;;4987435;28;20209;-85
2022/03/06 05:55:17;;;;;;;2.90;2.00;;;1.90;99.90;;;;;;4985722;28;20179;-83
2022/03/06 05:57:44;;;;;;;3.30;2.37;;;2.00;99.90;;;;;;4986942;28;20178;-85
2022/03/06 06:00:11;;;;;;;4.07;2.23;;;1.90;99.90;;;;;;4984998;28;20195;-84
2022/03/06 06:02:40;;;;;;;4.37;2.73;;;1.80;99.90;;;;;;4986593;28;20278;-84
2022/03/06 06:05:07;;;;;;;2.80;2.10;;;1.80;99.90;;;;;;4986353;28;20183;-84
2022/03/06 06:07:33;;;;;;;3.30;2.27;;;1.70;99.90;;;;;;4986449;28;20496;-85
2022/03/06 06:09:59;;;;;;;3.67;2.33;;;1.70;99.90;;;;;;4994780;28;20209;-84
2022/03/06 06:12:25;;;;;;;4.03;2.50;;;1.70;99.90;;;;;;4998837;28;20202;-86
2022/03/06 06:14:52;;;;;;;3.80;2.30;;;1.60;99.90;;;;;;5012223;28;20206;-84
2022/03/06 06:17:17;;;;;;;3.50;2.70;;;1.60;99.90;;;;;;4988320;28;20204;-84
2022/03/06 06:19:43;;;;;;;3.10;1.97;;;1.50;99.90;;;;;;4987074;28;20293;-85
2022/03/06 06:22:09;;;;;;;4.83;2.40;;;1.50;99.90;;;;;;4987004;28;20562;-84
2022/03/06 06:24:34;;;;;;;4.20;2.30;;;1.50;99.90;;;;;;4986971;28;20246;-84
2022/03/06 06:27:01;;;;;;;3.53;2.60;;;1.50;99.90;;;;;;4987767;28;20209;-85
2022/03/06 06:29:28;;;;;;;3.30;2.60;;;1.50;99.90;;;;;;4987737;28;20210;-87
2022/03/06 06:31:53;;;;;;;3.80;2.70;;;1.50;99.90;;;;;;4992873;28;20268;-84
2022/03/06 06:34:20;;;;;;;4.40;2.43;;;1.60;99.90;;;;;;4987686;28;20183;-84
2022/03/06 06:36:48;;;;;;;4.07;2.37;;;1.50;99.90;;;;;;4993536;28;20167;-84
2022/03/06 06:39:14;;;;;;;6.17;2.90;;;1.50;99.90;;;;;;4986967;28;20183;-85
2022/03/06 06:41:41;;;;;;;2.67;2.43;;;1.50;99.90;;;;;;4990566;28;20206;-84
2022/03/06 06:44:08;;;;;;;7.50;2.73;;;1.50;99.90;;;;;;4990077;28;20174;-84
2022/03/06 06:46:34;;;;;;;3.77;2.47;;;1.60;99.90;;;;;;4990807;28;20197;-84
2022/03/06 06:49:00;;;;;;;3.00;2.20;;;1.70;99.90;;;;;;4994351;28;20167;-84
2022/03/06 06:51:27;;;;;;;3.47;2.53;;;1.80;99.90;;;;;;4991768;28;20211;-84
2022/03/06 06:53:53;;;;;;;4.43;2.50;;;1.80;99.90;;;;;;4987288;28;20305;-84
2022/03/06 06:56:19;;;;;;;3.77;2.10;;;1.70;99.80;;;;;;4987420;28;20174;-85
2022/03/06 06:58:45;;;;;;;3.63;2.37;;;1.70;99.50;;;;;;4989777;28;20198;-85
2022/03/06 07:01:11;;;;;;;3.67;2.47;;;1.80;99.90;;;;;;4994962;28;20589;-84
2022/03/06 07:03:36;;;;;;;4.90;2.60;;;2.10;99.90;;;;;;4990734;28;20186;-85
2022/03/06 07:06:02;;;;;;;4.37;2.57;;;2.30;99.90;;;;;;4984674;28;20174;-85
2022/03/06 07:08:30;;;;;;;4.17;2.40;;;2.40;99.90;;;;;;4985639;28;20175;-84
2022/03/06 07:10:56;;;;;;;4.53;2.97;;;2.50;99.90;;;;;;4984104;28;20308;-84
2022/03/06 07:13:21;;;;;;;3.57;2.50;;;2.60;99.30;;;;;;4993981;28;20183;-85
2022/03/06 07:15:50;;;;;;;3.50;2.90;;;2.60;98.40;;;;;;4995226;28;20202;-85
2022/03/06 07:18:16;;;;;;;4.10;2.43;;;2.40;97.80;;;;;;4995005;28;20188;-84
2022/03/06 07:20:41;;;;;;;2.87;2.50;;;2.50;98.80;;;;;;4992001;28;20202;-84
2022/03/06 07:23:07;;;;;;;4.30;2.70;;;2.60;97.80;;;;;;4992196;28;20195;-84
2022/03/06 07:25:33;;;;;;;3.37;2.47;;;2.50;98.40;;;;;;4994527;28;20258;-85
2022/03/06 07:27:59;;;;;;;3.13;2.50;;;2.40;97.80;;;;;;4984868;28;20209;-84
2022/03/06 07:30:25;;;;;;;3.53;2.60;;;2.30;98.10;;;;;;4985825;28;20178;-85
2022/03/06 07:32:52;;;;;;;4.23;2.60;;;2.30;98.10;;;;;;4980520;28;20213;-85
2022/03/06 07:35:19;;;;;;;4.23;2.50;;;2.20;97.70;;;;;;4988484;28;20262;-83
2022/03/06 07:37:46;;;;;;;3.93;2.90;;;2.20;98.50;;;;;;4988368;28;20190;-83
2022/03/06 07:40:14;;;;;;;3.60;2.80;;;2.40;99.00;;;;;;4986746;28;20207;-84
2022/03/06 07:42:40;;;;;;;3.40;2.50;;;2.60;98.90;;;;;;4987880;28;20202;-85
2022/03/06 07:45:07;;;;;;;4.47;2.80;;;2.60;97.20;;;;;;4989356;28;20654;-84
2022/03/06 07:47:32;;;;;;;3.70;2.90;;;2.60;97.30;;;;;;4999345;28;20195;-83
2022/03/06 07:49:58;;;;;;;5.27;2.83;;;2.60;97.40;;;;;;5001582;28;20271;-83
2022/03/06 07:52:24;;;;;;;5.00;2.60;;;2.60;96.70;;;;;;5001197;28;20234;-84
2022/03/06 07:54:50;;;;;;;3.90;2.40;;;2.70;96.50;;;;;;5002137;28;20191;-84
2022/03/06 07:57:15;;;;;;;3.50;2.50;;;2.70;95.70;;;;;;4999721;28;20182;-84
2022/03/06 07:59:41;;;;;;;3.27;2.30;;;2.70;96.90;;;;;;5002721;28;20277;-83
2022/03/06 08:02:07;;;;;;;4.33;2.60;;;2.80;96.40;;;;;;5004966;28;20210;-83
2022/03/06 08:04:33;;;;;;;4.80;2.43;;;3.00;94.60;;;;;;5005829;28;20197;-84
2022/03/06 08:06:58;;;;;;;3.07;2.33;;;3.20;95.40;;;;;;5004110;28;20190;-84
2022/03/06 08:09:24;;;;;;;3.57;2.07;;;3.20;94.60;;;;;;5002627;28;20171;-84
2022/03/06 08:11:51;;;;;;;2.40;2.07;;;3.20;94.00;;;;;;5004919;28;20225;-84
2022/03/06 08:14:23;;;;;;;2.83;2.20;;;3.20;93.60;;;;;;5021059;28;20166;-85
2022/03/06 08:16:49;;;;;;;5.50;2.50;;;3.20;94.50;;;;;;5005120;28;20202;-83
2022/03/06 08:19:20;;;;;;;3.20;1.93;;;3.30;94.20;;;;;;4997965;28;20186;-83
2022/03/06 08:21:48;;;;;;;3.30;2.07;;;3.20;92.20;;;;;;5005776;28;20210;-84
2022/03/06 08:24:14;;;;;;;2.03;1.83;;;3.20;92.30;;;;;;5005947;28;20159;-84
2022/03/06 08:26:46;;;;;;;2.30;2.00;;;3.10;92.30;;;;;;5005610;28;20158;-84
2022/03/06 08:29:12;;;;;;;2.53;2.00;;;2.90;93.20;;;;;;4996914;28;20185;-85
2022/03/06 08:31:40;;;;;;;3.43;2.07;;;2.80;92.40;;;;;;4994493;28;20211;-84
2022/03/06 08:34:06;;;;;;;2.37;1.80;;;2.70;92.40;;;;;;4993028;28;20356;-85
2022/03/06 08:36:32;;;;;;;1.70;1.60;;;2.60;92.20;;;;;;4992528;28;20182;-85
2022/03/06 08:38:58;;;;;;;4.70;2.40;;;2.50;94.00;;;;;;4991495;28;20193;-84
2022/03/06 08:41:29;;;;;;;4.03;2.50;;;2.70;91.80;;;;;;4994991;28;20206;-84
2022/03/06 08:44:04;;;;;;;4.17;1.90;;;2.70;92.20;;;;;;4995916;28;20178;-85
2022/03/06 08:46:35;;;;;;;1.80;1.70;;;2.60;91.40;;;;;;5010684;28;20194;-85
2022/03/06 08:49:08;;;;;;;3.33;1.90;;;2.60;92.10;;;;;;4995219;28;20510;-84
2022/03/06 08:51:35;;;;;;;2.63;1.90;;;2.60;92.10;;;;;;4999379;28;20214;-84
2022/03/06 08:54:04;;;;;;;3.60;2.17;;;2.70;91.50;;;;;;5003277;28;20227;-84
2022/03/06 08:56:33;;;;;;;4.57;2.00;;;2.60;92.30;;;;;;5002643;28;20225;-84
2022/03/06 08:58:59;;;;;;;3.70;1.90;;;2.70;92.60;;;;;;4999936;28;20226;-83
2022/03/06 09:04:01;;;;;;;2.03;1.83;;;2.60;92.60;;;;;;4935521;29;20631;-82
2022/03/06 09:06:28;;;;;;;2.07;1.80;;;2.60;91.50;;;;;;4940974;29;20186;-82
2022/03/06 09:09:02;;;;;;;2.77;1.90;;;2.60;90.60;;;;;;4926582;29;20181;-82
2022/03/06 09:11:30;;;;;;;2.40;1.90;;;2.60;91.50;;;;;;4924370;29;20208;-82
2022/03/06 09:13:56;;;;;;;2.20;1.73;;;2.60;90.10;;;;;;4949469;29;20184;-81
2022/03/06 09:16:23;;;;;;;3.20;1.90;;;2.70;91.60;;;;;;4942475;29;20267;-83
2022/03/06 09:18:49;;;;;;;2.20;1.60;;;2.60;90.30;;;;;;4927157;29;20178;-83
2022/03/06 09:21:15;;;;;;;1.87;1.63;;;2.60;89.60;;;;;;4929669;29;20201;-83
2022/03/06 09:23:42;;;;;;;2.00;1.70;;;2.70;90.60;;;;;;4932265;29;20722;-83
2022/03/06 09:26:08;;;;;;;3.27;2.03;;;2.70;90.60;;;;;;4936745;29;20209;-83
2022/03/06 09:28:34;;;;;;;5.73;2.07;;;2.80;91.40;;;;;;4934708;29;20360;-83
2022/03/06 09:30:59;;;;;;;2.83;1.93;;;3.00;90.50;;;;;;4935120;29;20188;-82
2022/03/06 09:33:31;;;;;;;4.83;2.00;;;3.00;88.90;;;;;;4940254;29;20213;-82
2022/03/06 09:35:57;;;;;;;2.97;2.10;;;2.90;87.50;;;;;;4936267;29;20169;-81
2022/03/06 09:38:23;;;;;;;2.80;2.13;;;2.90;89.30;;;;;;4937169;29;20212;-82
2022/03/06 09:40:51;;;;;;;2.53;1.83;;;3.00;91.40;;;;;;4933178;29;20212;-81
2022/03/06 09:43:18;;;;;;;2.33;2.10;;;3.20;88.10;;;;;;4932663;29;20272;-80
2022/03/06 09:45:45;;;;;;;2.40;1.97;;;3.20;86.90;;;;;;4929893;29;20178;-81
2022/03/06 09:48:14;;;;;;;3.80;2.50;;;3.20;86.50;;;;;;4933968;29;20177;-81
2022/03/06 09:50:40;;;;;;;3.33;2.13;;;3.10;86.20;;;;;;4931236;29;20177;-81
2022/03/06 09:53:06;;;;;;;2.80;2.10;;;3.20;89.70;;;;;;4935859;29;20614;-82
2022/03/06 09:55:32;;;;;;;3.30;2.07;;;3.20;87.80;;;;;;4932091;29;20277;-82
2022/03/06 09:57:58;;;;;;;2.87;1.87;;;3.30;86.80;;;;;;4934869;29;20200;-81
2022/03/06 10:00:24;;;;;;;6.17;2.47;;;3.40;85.60;;;;;;4935512;29;20212;-82
2022/03/06 10:02:54;;;;;;;3.60;2.20;;;3.50;88.30;;;;;;4937877;29;20212;-83
2022/03/06 10:05:38;;;;;;;2.30;2.00;;;3.70;87.40;;;;;;4936578;29;20166;-82
2022/03/06 10:08:16;;;;;;;3.17;2.20;;;3.70;82.50;;;;;;4955211;29;20177;-81
2022/03/06 10:10:43;;;;;;;2.87;2.17;;;3.80;83.90;;;;;;4946950;29;20173;-81
2022/03/06 10:13:25;;;;;;;3.43;1.87;;;3.80;86.20;;;;;;4948708;29;20205;-81
2022/03/06 10:16:19;;;;;;;2.83;2.13;;;3.80;81.10;;;;;;4961315;29;20181;-82
2022/03/06 10:18:56;;;;;;;3.47;2.37;;;3.70;82.10;;;;;;4946623;29;20193;-82
2022/03/06 10:21:27;;;;;;;5.67;2.60;;;4.10;85.80;;;;;;4937489;29;20260;-82
2022/03/06 10:24:01;;;;;;;3.43;2.10;;;4.30;81.50;;;;;;4951237;29;20181;-82
2022/03/06 10:26:29;;;;;;;5.27;2.53;;;4.40;81.30;;;;;;4949696;29;20189;-82
2022/03/06 10:29:02;;;;;;;4.23;2.53;;;4.40;81.40;;;;;;4947885;29;20174;-82
2022/03/06 10:31:33;;;;;;;6.73;2.80;;;4.40;82.10;;;;;;4924149;29;20193;-82
2022/03/06 10:34:12;;;;;;;3.13;2.20;;;4.30;80.50;;;;;;4925561;29;20174;-82
2022/03/06 10:36:44;;;;;;;2.90;2.60;;;4.00;81.30;;;;;;4937324;29;20177;-82
2022/03/06 10:39:20;;;;;;;4.93;2.33;;;4.30;81.70;;;;;;4935132;29;20184;-82
2022/03/06 10:41:48;;;;;;;3.00;2.13;;;4.60;79.80;;;;;;4952918;29;20240;-82
2022/03/06 10:44:15;;;;;;;3.63;2.50;;;5.10;80.10;;;;;;4927935;29;20180;-83
2022/03/06 10:46:42;;;;;;;4.93;2.50;;;5.50;75.80;;;;;;4938056;29;20174;-82
2022/03/06 10:49:14;;;;;;;3.27;2.37;;;5.80;72.50;;;;;;4943866;29;20244;-82
2022/03/06 10:51:50;;;;;;;2.57;2.00;;;6.20;73.00;;;;;;4959086;29;20174;-82
2022/03/06 10:54:17;;;;;;;3.77;2.27;;;6.70;70.30;;;;;;4948616;29;20167;-83
2022/03/06 10:56:46;;;;;;;4.03;2.30;;;6.80;63.50;;;;;;4930466;29;20185;-81
2022/03/06 10:59:17;;;;;;;3.10;2.00;;;6.40;63.40;;;;;;4945608;29;20178;-81
2022/03/06 11:01:43;;;;;;;3.33;2.07;;;6.00;65.70;;;;;;4937791;29;20178;-82
2022/03/06 11:04:12;;;;;;;4.47;2.40;;;5.60;67.10;;;;;;4949131;29;20265;-82
2022/03/06 11:06:40;;;;;;;2.90;2.23;;;5.70;68.90;;;;;;4924708;29;20187;-84
2022/03/06 11:09:13;;;;;;;4.27;2.30;;;6.10;68.20;;;;;;4935680;29;20186;-83
2022/03/06 11:11:41;;;;;;;3.30;2.23;;;6.70;66.30;;;;;;4930048;29;20260;-83
2022/03/06 11:14:07;;;;;;;4.00;2.40;;;7.20;63.40;;;;;;4931051;29;20173;-83
2022/03/06 11:16:34;;;;;;;3.97;2.10;;;7.40;62.50;;;;;;4939748;29;20171;-83
2022/03/06 11:19:01;;;;;;;4.30;2.30;;;7.60;63.00;;;;;;4936929;29;20633;-83
2022/03/06 11:21:28;;;;;;;3.83;2.23;;;8.00;61.00;;;;;;4936279;29;20193;-83
2022/03/06 11:23:56;;;;;;;2.40;2.13;;;8.00;59.70;;;;;;4923455;29;20240;-82
2022/03/06 11:27:01;;;;;;;3.97;2.20;;;8.00;59.70;;;;;;4931879;29;20245;-82
2022/03/06 11:29:53;;;;;;;3.70;1.93;;;8.10;58.70;;;;;;4951630;29;20183;-83
2022/03/06 11:32:31;;;;;;;4.10;2.50;;;7.90;58.40;;;;;;4953590;29;20193;-83
2022/03/06 11:35:10;;;;;;;5.57;3.00;;;7.60;58.90;;;;;;4933856;29;20176;-82
2022/03/06 11:37:52;;;;;;;5.77;2.40;;;7.70;58.50;;;;;;4926595;29;20181;-82
2022/03/06 11:40:50;;;;;;;3.43;2.63;;;7.30;60.50;;;;;;4934924;29;20209;-82
2022/03/06 11:43:38;;;;;;;4.00;2.37;;;7.40;59.90;;;;;;4934483;29;20204;-83
2022/03/06 11:46:26;;;;;;;3.27;2.40;;;8.10;60.20;;;;;;4938052;29;20657;-83
2022/03/06 11:48:51;;;;;;;4.07;2.40;;;8.80;58.00;;;;;;4939810;29;20715;-83
2022/03/06 11:51:30;;;;;;;3.73;2.37;;;9.50;56.10;;;;;;4958274;29;20217;-83
2022/03/06 11:54:15;;;;;;;3.63;2.60;;;9.70;56.60;;;;;;4938899;29;20169;-83
2022/03/06 11:56:52;;;;;;;4.50;2.40;;;9.30;54.60;;;;;;4952653;29;20600;-83
2022/03/06 11:59:18;;;;;;;2.27;2.03;;;8.60;56.70;;;;;;4916531;29;20174;-83
2022/03/06 12:01:44;;;;;;;4.30;2.63;;;8.50;57.00;;;;;;4926478;29;20210;-84
2022/03/06 12:04:13;;;;;;;5.60;3.23;;;8.30;57.00;;;;;;4927107;29;20184;-84
2022/03/06 12:06:52;;;;;;;4.63;3.10;;;8.10;61.00;;;;;;4930886;29;20177;-83
2022/03/06 12:09:23;;;;;;;5.23;3.20;;;8.00;60.20;;;;;;4929783;29;20629;-83
2022/03/06 12:11:52;;;;;;;4.50;2.50;;;7.90;59.10;;;;;;4925661;29;20197;-83
2022/03/06 12:14:39;;;;;;;4.70;2.80;;;7.50;60.60;;;;;;4938006;29;20177;-83
2022/03/06 12:17:06;;;;;;;4.80;2.93;;;7.10;61.80;;;;;;4913406;29;20204;-82
2022/03/06 12:19:33;;;;;;;3.83;2.80;;;7.20;62.90;;;;;;4957683;28;20192;-83
2022/03/06 12:22:19;;;;;;;6.67;3.10;;;6.90;63.50;;;;;;4934472;29;20208;-83
2022/03/06 12:25:05;;;;;;;4.20;2.87;;;6.90;64.70;;;;;;4936464;29;20219;-83
2022/03/06 12:27:31;;;;;;;3.80;3.00;;;6.50;64.80;;;;;;4927539;29;20188;-83
2022/03/06 12:29:58;;;;;;;6.30;3.10;;;5.90;66.10;;;;;;4936068;29;20232;-83
2022/03/06 12:32:31;;;;;;;5.50;2.90;;;5.60;68.80;;;;;;4938526;29;20209;-83
2022/03/06 12:35:01;;;;;;;4.57;2.87;;;5.50;69.90;;;;;;4928254;29;20181;-82
2022/03/06 12:37:31;;;;;;;4.30;3.17;;;5.40;70.00;;;;;;4935408;29;20181;-82
2022/03/06 12:39:58;;;;;;;6.63;3.37;;;5.50;70.10;;;;;;4952663;29;20239;-83
2022/03/06 12:42:28;;;;;;;5.80;3.40;;;5.50;71.00;;;;;;4940353;29;20201;-83
2022/03/06 12:44:56;;;;;;;4.67;3.10;;;5.70;72.10;;;;;;4935377;29;20178;-83
2022/03/06 12:47:22;;;;;;;7.07;3.80;;;6.20;70.70;;;;;;4936020;29;20182;-82
2022/03/06 12:49:52;;;;;;;4.80;3.10;;;6.40;70.00;;;;;;4936250;29;20212;-83
2022/03/06 12:52:28;;;;;;;4.40;2.90;;;6.70;70.60;;;;;;4931548;29;20209;-83
2022/03/06 12:55:00;;;;;;;4.40;3.10;;;6.80;68.80;;;;;;4938307;29;20177;-83
2022/03/06 12:57:51;;;;;;;5.23;3.50;;;6.60;68.00;;;;;;4935609;29;20177;-82
2022/03/06 13:00:23;;;;;;;4.03;2.87;;;6.70;69.20;;;;;;4947025;29;20632;-83
2022/03/06 13:02:54;;;;;;;3.37;2.90;;;6.80;70.30;;;;;;4945086;29;20219;-83
2022/03/06 13:05:20;;;;;;;4.97;3.20;;;7.10;70.80;;;;;;4943459;29;20179;-83